sensor_id;sensor_type;location;lat;lon;timestamp;P1;durP1;ratioP1;P2;durP2;ratioP2
33403;SDS011;19751;40.274;18.268;2023-09-18T00:00:46;4.13;;;3.72;;
33403;SDS011;19751;40.274;18.268;2023-09-18T00:03:14;3.65;;;2.90;;
33403;SDS011;19751;40.274;18.268;2023-09-18T00:05:42;5.55;;;3.17;;
33403;SDS011;19751;40.274;18.268;2023-09-18T00:08:08;6.13;;;3.10;;
33403;SDS011;19751;40.274;18.268;2023-09-18T00:10:34;3.88;;;2.85;;
33403;SDS011;19751;40.274;18.268;2023-09-18T00:13:00;4.07;;;3.10;;
33403;SDS011;19751;40.274;18.268;2023-09-18T00:15:26;3.13;;;2.88;;
33403;SDS011;19751;40.274;18.268;2023-09-18T00:17:52;4.05;;;3.28;;
33403;SDS011;19751;40.274;18.268;2023-09-18T00:20:17;6.22;;;3.00;;
33403;SDS011;19751;40.274;18.268;2023-09-18T00:22:44;3.35;;;3.05;;
33403;SDS011;19751;40.274;18.268;2023-09-18T00:25:09;4.00;;;3.05;;
33403;SDS011;19751;40.274;18.268;2023-09-18T00:27:35;7.28;;;4.00;;
33403;SDS011;19751;40.274;18.268;2023-09-18T00:30:02;7.32;;;3.58;;
33403;SDS011;19751;40.274;18.268;2023-09-18T00:32:29;7.57;;;3.95;;
33403;SDS011;19751;40.274;18.268;2023-09-18T00:34:55;4.63;;;3.97;;
33403;SDS011;19751;40.274;18.268;2023-09-18T00:37:21;6.07;;;4.25;;
33403;SDS011;19751;40.274;18.268;2023-09-18T00:39:46;4.20;;;3.78;;
33403;SDS011;19751;40.274;18.268;2023-09-18T00:42:12;6.22;;;4.20;;
33403;SDS011;19751;40.274;18.268;2023-09-18T00:44:43;4.88;;;4.38;;
33403;SDS011;19751;40.274;18.268;2023-09-18T00:47:08;4.70;;;3.65;;
33403;SDS011;19751;40.274;18.268;2023-09-18T00:49:35;6.60;;;3.80;;
33403;SDS011;19751;40.274;18.268;2023-09-18T00:52:04;8.35;;;4.75;;
33403;SDS011;19751;40.274;18.268;2023-09-18T00:54:30;6.50;;;4.22;;
33403;SDS011;19751;40.274;18.268;2023-09-18T00:56:57;8.02;;;4.82;;
33403;SDS011;19751;40.274;18.268;2023-09-18T00:59:23;6.82;;;4.10;;
33403;SDS011;19751;40.274;18.268;2023-09-18T01:01:48;5.13;;;3.75;;
33403;SDS011;19751;40.274;18.268;2023-09-18T01:04:19;6.13;;;3.90;;
33403;SDS011;19751;40.274;18.268;2023-09-18T01:06:45;5.20;;;3.50;;
33403;SDS011;19751;40.274;18.268;2023-09-18T01:09:11;4.15;;;3.75;;
33403;SDS011;19751;40.274;18.268;2023-09-18T01:11:54;5.57;;;3.40;;
33403;SDS011;19751;40.274;18.268;2023-09-18T01:14:38;5.05;;;3.53;;
33403;SDS011;19751;40.274;18.268;2023-09-18T01:17:09;5.05;;;3.45;;
33403;SDS011;19751;40.274;18.268;2023-09-18T01:22:09;4.13;;;3.13;;
33403;SDS011;19751;40.274;18.268;2023-09-18T01:24:35;4.90;;;4.10;;
33403;SDS011;19751;40.274;18.268;2023-09-18T01:27:02;4.13;;;3.70;;
33403;SDS011;19751;40.274;18.268;2023-09-18T01:29:29;7.65;;;3.47;;
33403;SDS011;19751;40.274;18.268;2023-09-18T01:31:56;7.03;;;4.00;;
33403;SDS011;19751;40.274;18.268;2023-09-18T01:34:24;7.18;;;4.35;;
33403;SDS011;19751;40.274;18.268;2023-09-18T01:36:53;3.47;;;3.17;;
33403;SDS011;19751;40.274;18.268;2023-09-18T01:39:22;3.88;;;3.20;;
33403;SDS011;19751;40.274;18.268;2023-09-18T01:41:49;3.28;;;2.97;;
33403;SDS011;19751;40.274;18.268;2023-09-18T01:44:15;6.20;;;3.03;;
33403;SDS011;19751;40.274;18.268;2023-09-18T01:46:41;6.22;;;3.28;;
33403;SDS011;19751;40.274;18.268;2023-09-18T01:49:07;3.20;;;2.85;;
33403;SDS011;19751;40.274;18.268;2023-09-18T01:51:33;3.88;;;2.83;;
33403;SDS011;19751;40.274;18.268;2023-09-18T01:53:58;4.80;;;3.00;;
33403;SDS011;19751;40.274;18.268;2023-09-18T01:56:24;5.07;;;3.60;;
33403;SDS011;19751;40.274;18.268;2023-09-18T01:58:49;5.03;;;2.72;;
33403;SDS011;19751;40.274;18.268;2023-09-18T02:01:15;5.93;;;3.88;;
33403;SDS011;19751;40.274;18.268;2023-09-18T02:03:40;3.35;;;3.05;;
33403;SDS011;19751;40.274;18.268;2023-09-18T02:06:06;3.40;;;3.10;;
33403;SDS011;19751;40.274;18.268;2023-09-18T02:08:35;4.50;;;3.05;;
33403;SDS011;19751;40.274;18.268;2023-09-18T02:11:00;4.38;;;3.20;;
33403;SDS011;19751;40.274;18.268;2023-09-18T02:13:26;3.85;;;3.20;;
33403;SDS011;19751;40.274;18.268;2023-09-18T02:15:51;6.60;;;3.15;;
33403;SDS011;19751;40.274;18.268;2023-09-18T02:18:17;5.68;;;3.63;;
33403;SDS011;19751;40.274;18.268;2023-09-18T02:20:44;4.03;;;3.67;;
33403;SDS011;19751;40.274;18.268;2023-09-18T02:23:12;3.50;;;3.03;;
33403;SDS011;19751;40.274;18.268;2023-09-18T02:25:38;3.95;;;3.55;;
33403;SDS011;19751;40.274;18.268;2023-09-18T02:28:05;5.75;;;2.88;;
33403;SDS011;19751;40.274;18.268;2023-09-18T02:30:31;5.57;;;2.88;;
33403;SDS011;19751;40.274;18.268;2023-09-18T02:32:56;4.70;;;3.05;;
33403;SDS011;19751;40.274;18.268;2023-09-18T02:35:22;4.20;;;3.30;;
33403;SDS011;19751;40.274;18.268;2023-09-18T02:37:48;4.35;;;3.28;;
33403;SDS011;19751;40.274;18.268;2023-09-18T02:40:13;5.43;;;3.40;;
33403;SDS011;19751;40.274;18.268;2023-09-18T02:42:39;4.65;;;3.25;;
33403;SDS011;19751;40.274;18.268;2023-09-18T02:45:04;3.88;;;3.40;;
33403;SDS011;19751;40.274;18.268;2023-09-18T02:47:31;4.03;;;3.05;;
33403;SDS011;19751;40.274;18.268;2023-09-18T02:49:57;3.70;;;3.05;;
33403;SDS011;19751;40.274;18.268;2023-09-18T02:52:22;3.90;;;3.22;;
33403;SDS011;19751;40.274;18.268;2023-09-18T02:54:48;3.78;;;3.42;;
33403;SDS011;19751;40.274;18.268;2023-09-18T02:57:13;3.88;;;3.47;;
33403;SDS011;19751;40.274;18.268;2023-09-18T02:59:39;4.72;;;3.53;;
33403;SDS011;19751;40.274;18.268;2023-09-18T03:02:05;3.53;;;3.22;;
33403;SDS011;19751;40.274;18.268;2023-09-18T03:04:31;4.30;;;3.30;;
33403;SDS011;19751;40.274;18.268;2023-09-18T03:06:56;3.17;;;2.85;;
33403;SDS011;19751;40.274;18.268;2023-09-18T03:09:22;3.33;;;3.03;;
33403;SDS011;19751;40.274;18.268;2023-09-18T03:11:47;3.97;;;3.38;;
33403;SDS011;19751;40.274;18.268;2023-09-18T03:14:13;5.35;;;2.97;;
33403;SDS011;19751;40.274;18.268;2023-09-18T03:16:38;4.07;;;3.10;;
33403;SDS011;19751;40.274;18.268;2023-09-18T03:19:04;5.22;;;3.30;;
33403;SDS011;19751;40.274;18.268;2023-09-18T03:21:29;3.28;;;3.03;;
33403;SDS011;19751;40.274;18.268;2023-09-18T03:23:58;4.55;;;2.80;;
33403;SDS011;19751;40.274;18.268;2023-09-18T03:26:24;3.13;;;2.90;;
33403;SDS011;19751;40.274;18.268;2023-09-18T03:28:49;2.97;;;2.67;;
33403;SDS011;19751;40.274;18.268;2023-09-18T03:31:15;2.75;;;2.55;;
33403;SDS011;19751;40.274;18.268;2023-09-18T03:33:40;3.65;;;3.03;;
33403;SDS011;19751;40.274;18.268;2023-09-18T03:36:06;2.80;;;2.60;;
33403;SDS011;19751;40.274;18.268;2023-09-18T03:38:33;3.63;;;2.88;;
33403;SDS011;19751;40.274;18.268;2023-09-18T03:41:00;2.75;;;2.55;;
33403;SDS011;19751;40.274;18.268;2023-09-18T03:43:26;3.97;;;3.60;;
33403;SDS011;19751;40.274;18.268;2023-09-18T03:45:51;3.83;;;3.35;;
33403;SDS011;19751;40.274;18.268;2023-09-18T03:48:17;4.38;;;3.90;;
33403;SDS011;19751;40.274;18.268;2023-09-18T03:50:42;4.05;;;3.45;;
33403;SDS011;19751;40.274;18.268;2023-09-18T03:53:09;4.22;;;3.35;;
33403;SDS011;19751;40.274;18.268;2023-09-18T03:55:34;3.90;;;3.42;;
33403;SDS011;19751;40.274;18.268;2023-09-18T03:58:00;4.72;;;3.58;;
33403;SDS011;19751;40.274;18.268;2023-09-18T04:00:26;3.80;;;3.22;;
33403;SDS011;19751;40.274;18.268;2023-09-18T04:02:51;3.83;;;2.95;;
33403;SDS011;19751;40.274;18.268;2023-09-18T04:05:17;4.13;;;3.58;;
33403;SDS011;19751;40.274;18.268;2023-09-18T04:07:42;5.05;;;3.67;;
33403;SDS011;19751;40.274;18.268;2023-09-18T04:10:11;3.75;;;3.28;;
33403;SDS011;19751;40.274;18.268;2023-09-18T04:12:43;3.90;;;3.00;;
33403;SDS011;19751;40.274;18.268;2023-09-18T04:15:11;4.25;;;3.85;;
33403;SDS011;19751;40.274;18.268;2023-09-18T04:17:39;3.60;;;3.25;;
33403;SDS011;19751;40.274;18.268;2023-09-18T04:20:05;4.00;;;3.63;;
33403;SDS011;19751;40.274;18.268;2023-09-18T04:22:31;4.20;;;3.80;;
33403;SDS011;19751;40.274;18.268;2023-09-18T04:24:56;4.68;;;3.72;;
33403;SDS011;19751;40.274;18.268;2023-09-18T04:27:22;4.75;;;3.10;;
33403;SDS011;19751;40.274;18.268;2023-09-18T04:29:47;3.55;;;3.05;;
33403;SDS011;19751;40.274;18.268;2023-09-18T04:32:12;4.80;;;3.20;;
33403;SDS011;19751;40.274;18.268;2023-09-18T04:34:38;3.80;;;2.97;;
33403;SDS011;19751;40.274;18.268;2023-09-18T04:37:04;4.18;;;3.60;;
33403;SDS011;19751;40.274;18.268;2023-09-18T04:39:29;6.28;;;3.05;;
33403;SDS011;19751;40.274;18.268;2023-09-18T04:41:55;4.72;;;3.28;;
33403;SDS011;19751;40.274;18.268;2023-09-18T04:44:20;4.90;;;3.10;;
33403;SDS011;19751;40.274;18.268;2023-09-18T04:46:46;3.22;;;3.00;;
33403;SDS011;19751;40.274;18.268;2023-09-18T04:49:12;3.45;;;3.15;;
33403;SDS011;19751;40.274;18.268;2023-09-18T04:51:38;4.00;;;3.70;;
33403;SDS011;19751;40.274;18.268;2023-09-18T04:54:06;3.97;;;2.70;;
33403;SDS011;19751;40.274;18.268;2023-09-18T04:56:32;5.50;;;3.25;;
33403;SDS011;19751;40.274;18.268;2023-09-18T04:58:58;3.72;;;3.33;;
33403;SDS011;19751;40.274;18.268;2023-09-18T05:01:23;4.00;;;3.17;;
33403;SDS011;19751;40.274;18.268;2023-09-18T05:03:49;3.05;;;2.80;;
33403;SDS011;19751;40.274;18.268;2023-09-18T05:06:16;4.70;;;2.78;;
33403;SDS011;19751;40.274;18.268;2023-09-18T05:08:42;3.47;;;3.17;;
33403;SDS011;19751;40.274;18.268;2023-09-18T05:11:08;3.70;;;3.15;;
33403;SDS011;19751;40.274;18.268;2023-09-18T05:13:34;3.83;;;3.15;;
33403;SDS011;19751;40.274;18.268;2023-09-18T05:15:59;3.38;;;3.08;;
33403;SDS011;19751;40.274;18.268;2023-09-18T05:18:26;4.25;;;3.58;;
33403;SDS011;19751;40.274;18.268;2023-09-18T05:20:51;5.82;;;3.47;;
33403;SDS011;19751;40.274;18.268;2023-09-18T05:23:17;4.95;;;3.03;;
33403;SDS011;19751;40.274;18.268;2023-09-18T05:25:43;4.90;;;3.53;;
33403;SDS011;19751;40.274;18.268;2023-09-18T05:28:09;4.75;;;3.28;;
33403;SDS011;19751;40.274;18.268;2023-09-18T05:30:34;5.03;;;3.13;;
33403;SDS011;19751;40.274;18.268;2023-09-18T05:33:03;7.72;;;4.53;;
33403;SDS011;19751;40.274;18.268;2023-09-18T05:35:42;6.15;;;4.53;;
33403;SDS011;19751;40.274;18.268;2023-09-18T05:38:11;7.85;;;4.72;;
33403;SDS011;19751;40.274;18.268;2023-09-18T05:40:43;7.78;;;4.00;;
33403;SDS011;19751;40.274;18.268;2023-09-18T05:43:10;4.13;;;3.17;;
33403;SDS011;19751;40.274;18.268;2023-09-18T05:45:37;5.88;;;3.40;;
33403;SDS011;19751;40.274;18.268;2023-09-18T05:48:03;5.95;;;3.85;;
33403;SDS011;19751;40.274;18.268;2023-09-18T05:50:32;3.40;;;3.10;;
33403;SDS011;19751;40.274;18.268;2023-09-18T05:53:00;5.70;;;3.22;;
33403;SDS011;19751;40.274;18.268;2023-09-18T05:55:29;6.07;;;3.20;;
33403;SDS011;19751;40.274;18.268;2023-09-18T05:57:55;4.63;;;3.63;;
33403;SDS011;19751;40.274;18.268;2023-09-18T06:00:22;4.05;;;3.55;;
33403;SDS011;19751;40.274;18.268;2023-09-18T06:02:48;5.32;;;3.60;;
33403;SDS011;19751;40.274;18.268;2023-09-18T06:05:16;15.82;;;5.40;;
33403;SDS011;19751;40.274;18.268;2023-09-18T06:07:42;9.98;;;4.93;;
33403;SDS011;19751;40.274;18.268;2023-09-18T06:10:08;5.85;;;3.42;;
33403;SDS011;19751;40.274;18.268;2023-09-18T06:12:34;5.07;;;3.78;;
33403;SDS011;19751;40.274;18.268;2023-09-18T06:14:59;5.75;;;3.58;;
33403;SDS011;19751;40.274;18.268;2023-09-18T06:17:25;4.65;;;3.30;;
33403;SDS011;19751;40.274;18.268;2023-09-18T06:19:50;3.70;;;3.28;;
33403;SDS011;19751;40.274;18.268;2023-09-18T06:22:17;5.15;;;3.53;;
33403;SDS011;19751;40.274;18.268;2023-09-18T06:24:42;4.93;;;3.47;;
33403;SDS011;19751;40.274;18.268;2023-09-18T06:27:08;4.63;;;3.63;;
33403;SDS011;19751;40.274;18.268;2023-09-18T06:29:34;7.03;;;3.97;;
33403;SDS011;19751;40.274;18.268;2023-09-18T06:32:00;6.85;;;4.07;;
33403;SDS011;19751;40.274;18.268;2023-09-18T06:34:26;8.00;;;4.07;;
33403;SDS011;19751;40.274;18.268;2023-09-18T06:36:53;4.93;;;4.20;;
33403;SDS011;19751;40.274;18.268;2023-09-18T06:39:19;4.38;;;3.97;;
33403;SDS011;19751;40.274;18.268;2023-09-18T06:41:47;7.20;;;5.00;;
33403;SDS011;19751;40.274;18.268;2023-09-18T06:44:12;8.98;;;4.55;;
33403;SDS011;19751;40.274;18.268;2023-09-18T06:46:38;3.88;;;3.35;;
33403;SDS011;19751;40.274;18.268;2023-09-18T06:49:04;4.32;;;2.92;;
33403;SDS011;19751;40.274;18.268;2023-09-18T06:51:30;3.53;;;3.22;;
33403;SDS011;19751;40.274;18.268;2023-09-18T06:53:55;4.72;;;3.50;;
33403;SDS011;19751;40.274;18.268;2023-09-18T06:56:22;4.43;;;3.58;;
33403;SDS011;19751;40.274;18.268;2023-09-18T06:58:49;4.47;;;3.83;;
33403;SDS011;19751;40.274;18.268;2023-09-18T07:01:16;6.55;;;3.60;;
33403;SDS011;19751;40.274;18.268;2023-09-18T07:03:44;4.70;;;3.30;;
33403;SDS011;19751;40.274;18.268;2023-09-18T07:06:12;5.45;;;3.40;;
33403;SDS011;19751;40.274;18.268;2023-09-18T07:08:38;4.85;;;3.90;;
33403;SDS011;19751;40.274;18.268;2023-09-18T07:11:03;33.05;;;7.40;;
33403;SDS011;19751;40.274;18.268;2023-09-18T07:13:29;14.98;;;4.60;;
33403;SDS011;19751;40.274;18.268;2023-09-18T07:15:54;6.13;;;3.80;;
33403;SDS011;19751;40.274;18.268;2023-09-18T07:18:20;12.38;;;5.13;;
33403;SDS011;19751;40.274;18.268;2023-09-18T07:20:46;6.03;;;4.55;;
33403;SDS011;19751;40.274;18.268;2023-09-18T07:23:12;4.75;;;4.20;;
33403;SDS011;19751;40.274;18.268;2023-09-18T07:25:37;5.72;;;4.53;;
33403;SDS011;19751;40.274;18.268;2023-09-18T07:28:06;7.07;;;4.95;;
33403;SDS011;19751;40.274;18.268;2023-09-18T07:30:32;12.45;;;6.55;;
33403;SDS011;19751;40.274;18.268;2023-09-18T07:32:58;6.13;;;5.35;;
33403;SDS011;19751;40.274;18.268;2023-09-18T07:35:24;9.68;;;5.70;;
33403;SDS011;19751;40.274;18.268;2023-09-18T07:37:50;6.15;;;4.85;;
33403;SDS011;19751;40.274;18.268;2023-09-18T07:40:16;8.98;;;5.50;;
33403;SDS011;19751;40.274;18.268;2023-09-18T07:42:42;7.22;;;5.22;;
33403;SDS011;19751;40.274;18.268;2023-09-18T07:45:10;4.65;;;4.25;;
33403;SDS011;19751;40.274;18.268;2023-09-18T07:47:37;4.63;;;3.83;;
33403;SDS011;19751;40.274;18.268;2023-09-18T07:50:02;6.68;;;4.05;;
33403;SDS011;19751;40.274;18.268;2023-09-18T07:52:28;5.03;;;3.47;;
33403;SDS011;19751;40.274;18.268;2023-09-18T07:54:55;5.88;;;3.45;;
33403;SDS011;19751;40.274;18.268;2023-09-18T07:57:21;4.38;;;3.70;;
33403;SDS011;19751;40.274;18.268;2023-09-18T07:59:48;7.13;;;4.85;;
33403;SDS011;19751;40.274;18.268;2023-09-18T08:02:13;4.32;;;3.95;;
33403;SDS011;19751;40.274;18.268;2023-09-18T08:04:39;7.20;;;3.90;;
33403;SDS011;19751;40.274;18.268;2023-09-18T08:07:05;4.20;;;3.63;;
33403;SDS011;19751;40.274;18.268;2023-09-18T08:09:33;5.35;;;4.00;;
33403;SDS011;19751;40.274;18.268;2023-09-18T08:12:02;4.03;;;3.63;;
33403;SDS011;19751;40.274;18.268;2023-09-18T08:14:28;4.72;;;3.47;;
33403;SDS011;19751;40.274;18.268;2023-09-18T08:16:57;6.03;;;4.25;;
33403;SDS011;19751;40.274;18.268;2023-09-18T08:19:24;7.20;;;3.58;;
33403;SDS011;19751;40.274;18.268;2023-09-18T08:21:53;5.63;;;3.90;;
33403;SDS011;19751;40.274;18.268;2023-09-18T08:24:19;3.35;;;2.95;;
33403;SDS011;19751;40.274;18.268;2023-09-18T08:26:46;6.93;;;3.70;;
33403;SDS011;19751;40.274;18.268;2023-09-18T08:29:11;5.03;;;3.70;;
33403;SDS011;19751;40.274;18.268;2023-09-18T08:31:37;5.78;;;3.10;;
33403;SDS011;19751;40.274;18.268;2023-09-18T08:34:02;2.97;;;2.60;;
33403;SDS011;19751;40.274;18.268;2023-09-18T08:36:28;6.22;;;2.67;;
33403;SDS011;19751;40.274;18.268;2023-09-18T08:38:55;4.25;;;3.63;;
33403;SDS011;19751;40.274;18.268;2023-09-18T08:41:21;4.28;;;2.90;;
33403;SDS011;19751;40.274;18.268;2023-09-18T08:43:52;4.65;;;3.53;;
33403;SDS011;19751;40.274;18.268;2023-09-18T08:46:21;4.32;;;3.13;;
33403;SDS011;19751;40.274;18.268;2023-09-18T08:48:48;3.17;;;2.90;;
33403;SDS011;19751;40.274;18.268;2023-09-18T08:51:14;6.93;;;3.50;;
33403;SDS011;19751;40.274;18.268;2023-09-18T08:53:42;3.65;;;2.58;;
33403;SDS011;19751;40.274;18.268;2023-09-18T08:56:08;4.88;;;3.08;;
33403;SDS011;19751;40.274;18.268;2023-09-18T08:58:36;6.63;;;3.17;;
33403;SDS011;19751;40.274;18.268;2023-09-18T09:01:05;2.85;;;2.65;;
33403;SDS011;19751;40.274;18.268;2023-09-18T09:03:35;3.65;;;3.05;;
33403;SDS011;19751;40.274;18.268;2023-09-18T09:06:02;5.88;;;2.90;;
33403;SDS011;19751;40.274;18.268;2023-09-18T09:08:28;7.82;;;3.42;;
33403;SDS011;19751;40.274;18.268;2023-09-18T09:10:54;4.47;;;3.15;;
33403;SDS011;19751;40.274;18.268;2023-09-18T09:13:23;4.35;;;2.60;;
33403;SDS011;19751;40.274;18.268;2023-09-18T09:15:52;4.07;;;3.28;;
33403;SDS011;19751;40.274;18.268;2023-09-18T09:18:21;3.60;;;3.30;;
33403;SDS011;19751;40.274;18.268;2023-09-18T09:20:53;4.95;;;2.72;;
33403;SDS011;19751;40.274;18.268;2023-09-18T09:23:24;6.07;;;3.53;;
33403;SDS011;19751;40.274;18.268;2023-09-18T09:25:54;10.73;;;3.80;;
33403;SDS011;19751;40.274;18.268;2023-09-18T09:28:37;4.07;;;3.10;;
33403;SDS011;19751;40.274;18.268;2023-09-18T09:31:02;6.00;;;3.60;;
33403;SDS011;19751;40.274;18.268;2023-09-18T09:33:28;6.32;;;3.38;;
33403;SDS011;19751;40.274;18.268;2023-09-18T09:35:55;8.35;;;3.67;;
33403;SDS011;19751;40.274;18.268;2023-09-18T09:38:22;6.97;;;3.38;;
33403;SDS011;19751;40.274;18.268;2023-09-18T09:40:54;4.07;;;3.25;;
33403;SDS011;19751;40.274;18.268;2023-09-18T09:43:19;3.65;;;2.63;;
33403;SDS011;19751;40.274;18.268;2023-09-18T09:45:45;4.07;;;2.65;;
33403;SDS011;19751;40.274;18.268;2023-09-18T09:48:11;5.05;;;3.50;;
33403;SDS011;19751;40.274;18.268;2023-09-18T09:50:44;5.43;;;3.10;;
33403;SDS011;19751;40.274;18.268;2023-09-18T09:53:13;6.18;;;3.17;;
33403;SDS011;19751;40.274;18.268;2023-09-18T09:55:39;5.97;;;3.33;;
33403;SDS011;19751;40.274;18.268;2023-09-18T09:58:07;6.45;;;2.72;;
33403;SDS011;19751;40.274;18.268;2023-09-18T10:00:38;4.45;;;2.30;;
33403;SDS011;19751;40.274;18.268;2023-09-18T10:03:09;7.78;;;2.92;;
33403;SDS011;19751;40.274;18.268;2023-09-18T10:05:37;4.85;;;2.90;;
33403;SDS011;19751;40.274;18.268;2023-09-18T10:08:06;5.10;;;2.83;;
33403;SDS011;19751;40.274;18.268;2023-09-18T10:10:35;2.50;;;2.30;;
33403;SDS011;19751;40.274;18.268;2023-09-18T10:13:15;4.82;;;2.60;;
33403;SDS011;19751;40.274;18.268;2023-09-18T10:15:54;4.88;;;2.53;;
33403;SDS011;19751;40.274;18.268;2023-09-18T10:21:09;5.05;;;2.70;;
33403;SDS011;19751;40.274;18.268;2023-09-18T10:26:30;3.85;;;2.30;;
33403;SDS011;19751;40.274;18.268;2023-09-18T10:29:03;6.07;;;2.75;;
33403;SDS011;19751;40.274;18.268;2023-09-18T10:31:31;4.18;;;2.80;;
33403;SDS011;19751;40.274;18.268;2023-09-18T10:33:59;16.80;;;2.88;;
33403;SDS011;19751;40.274;18.268;2023-09-18T10:36:28;8.00;;;3.13;;
33403;SDS011;19751;40.274;18.268;2023-09-18T10:38:55;6.13;;;2.63;;
33403;SDS011;19751;40.274;18.268;2023-09-18T10:41:23;5.57;;;2.67;;
33403;SDS011;19751;40.274;18.268;2023-09-18T10:43:52;2.97;;;2.55;;
33403;SDS011;19751;40.274;18.268;2023-09-18T10:46:18;3.60;;;2.38;;
33403;SDS011;19751;40.274;18.268;2023-09-18T10:48:45;4.97;;;2.60;;
33403;SDS011;19751;40.274;18.268;2023-09-18T10:51:12;3.28;;;2.38;;
33403;SDS011;19751;40.274;18.268;2023-09-18T10:53:39;5.10;;;2.67;;
33403;SDS011;19751;40.274;18.268;2023-09-18T10:56:05;5.43;;;2.90;;
33403;SDS011;19751;40.274;18.268;2023-09-18T10:58:32;6.07;;;2.83;;
33403;SDS011;19751;40.274;18.268;2023-09-18T11:01:02;4.13;;;2.20;;
33403;SDS011;19751;40.274;18.268;2023-09-18T11:03:29;6.07;;;2.83;;
33403;SDS011;19751;40.274;18.268;2023-09-18T11:06:02;9.20;;;3.45;;
33403;SDS011;19751;40.274;18.268;2023-09-18T11:11:17;4.28;;;2.97;;
33403;SDS011;19751;40.274;18.268;2023-09-18T11:13:48;5.40;;;3.35;;
33403;SDS011;19751;40.274;18.268;2023-09-18T11:16:32;4.95;;;2.95;;
33403;SDS011;19751;40.274;18.268;2023-09-18T11:21:34;6.43;;;3.17;;
33403;SDS011;19751;40.274;18.268;2023-09-18T11:26:30;6.18;;;3.83;;
33403;SDS011;19751;40.274;18.268;2023-09-18T11:29:06;4.47;;;2.92;;
33403;SDS011;19751;40.274;18.268;2023-09-18T11:31:41;3.58;;;3.03;;
33403;SDS011;19751;40.274;18.268;2023-09-18T11:34:13;5.88;;;2.85;;
33403;SDS011;19751;40.274;18.268;2023-09-18T11:36:48;4.10;;;2.83;;
33403;SDS011;19751;40.274;18.268;2023-09-18T11:42:09;5.40;;;2.80;;
33403;SDS011;19751;40.274;18.268;2023-09-18T11:44:42;7.22;;;2.45;;
33403;SDS011;19751;40.274;18.268;2023-09-18T11:47:15;5.68;;;3.65;;
33403;SDS011;19751;40.274;18.268;2023-09-18T11:52:23;7.18;;;4.38;;
33403;SDS011;19751;40.274;18.268;2023-09-18T11:54:51;4.22;;;3.25;;
33403;SDS011;19751;40.274;18.268;2023-09-18T11:57:17;3.45;;;2.60;;
33403;SDS011;19751;40.274;18.268;2023-09-18T11:59:45;7.18;;;3.47;;
33403;SDS011;19751;40.274;18.268;2023-09-18T12:02:28;6.50;;;2.90;;
33403;SDS011;19751;40.274;18.268;2023-09-18T12:07:39;5.03;;;2.88;;
33403;SDS011;19751;40.274;18.268;2023-09-18T12:10:09;4.25;;;2.97;;
33403;SDS011;19751;40.274;18.268;2023-09-18T12:12:35;7.40;;;3.08;;
33403;SDS011;19751;40.274;18.268;2023-09-18T12:15:01;8.77;;;3.13;;
33403;SDS011;19751;40.274;18.268;2023-09-18T12:17:28;11.27;;;2.80;;
33403;SDS011;19751;40.274;18.268;2023-09-18T12:19:54;6.40;;;2.92;;
33403;SDS011;19751;40.274;18.268;2023-09-18T12:22:29;5.10;;;2.70;;
33403;SDS011;19751;40.274;18.268;2023-09-18T12:25:12;8.48;;;3.45;;
33403;SDS011;19751;40.274;18.268;2023-09-18T12:27:39;7.10;;;2.75;;
33403;SDS011;19751;40.274;18.268;2023-09-18T12:30:07;3.42;;;2.45;;
33403;SDS011;19751;40.274;18.268;2023-09-18T12:32:37;8.27;;;4.15;;
33403;SDS011;19751;40.274;18.268;2023-09-18T12:35:03;6.70;;;2.42;;
33403;SDS011;19751;40.274;18.268;2023-09-18T12:37:35;8.15;;;3.17;;
33403;SDS011;19751;40.274;18.268;2023-09-18T12:42:58;4.40;;;2.58;;
33403;SDS011;19751;40.274;18.268;2023-09-18T12:45:24;5.75;;;2.92;;
33403;SDS011;19751;40.274;18.268;2023-09-18T12:48:00;9.32;;;2.63;;
33403;SDS011;19751;40.274;18.268;2023-09-18T12:50:31;3.88;;;2.47;;
33403;SDS011;19751;40.274;18.268;2023-09-18T12:53:06;6.50;;;2.90;;
33403;SDS011;19751;40.274;18.268;2023-09-18T12:55:39;8.38;;;2.75;;
33403;SDS011;19751;40.274;18.268;2023-09-18T12:58:06;4.70;;;2.65;;
33403;SDS011;19751;40.274;18.268;2023-09-18T13:00:35;2.67;;;1.90;;
33403;SDS011;19751;40.274;18.268;2023-09-18T13:03:01;10.30;;;2.65;;
33403;SDS011;19751;40.274;18.268;2023-09-18T13:05:29;6.82;;;2.45;;
33403;SDS011;19751;40.274;18.268;2023-09-18T13:08:01;4.82;;;2.70;;
33403;SDS011;19751;40.274;18.268;2023-09-18T13:10:29;8.73;;;3.20;;
33403;SDS011;19751;40.274;18.268;2023-09-18T13:12:55;6.57;;;2.70;;
33403;SDS011;19751;40.274;18.268;2023-09-18T13:15:24;5.90;;;2.45;;
33403;SDS011;19751;40.274;18.268;2023-09-18T13:17:52;4.05;;;2.50;;
33403;SDS011;19751;40.274;18.268;2023-09-18T13:20:26;4.13;;;2.70;;
33403;SDS011;19751;40.274;18.268;2023-09-18T13:22:57;5.97;;;2.58;;
33403;SDS011;19751;40.274;18.268;2023-09-18T13:25:27;4.60;;;2.40;;
33403;SDS011;19751;40.274;18.268;2023-09-18T13:27:54;4.50;;;2.13;;
33403;SDS011;19751;40.274;18.268;2023-09-18T13:30:20;4.45;;;2.50;;
33403;SDS011;19751;40.274;18.268;2023-09-18T13:32:48;7.45;;;2.63;;
33403;SDS011;19751;40.274;18.268;2023-09-18T13:35:15;4.45;;;2.60;;
33403;SDS011;19751;40.274;18.268;2023-09-18T13:37:41;5.93;;;2.45;;
33403;SDS011;19751;40.274;18.268;2023-09-18T13:40:08;7.70;;;2.65;;
33403;SDS011;19751;40.274;18.268;2023-09-18T13:42:34;3.05;;;2.70;;
33403;SDS011;19751;40.274;18.268;2023-09-18T13:45:01;4.97;;;2.72;;
33403;SDS011;19751;40.274;18.268;2023-09-18T13:47:31;5.55;;;4.22;;
33403;SDS011;19751;40.274;18.268;2023-09-18T13:49:57;6.88;;;3.05;;
33403;SDS011;19751;40.274;18.268;2023-09-18T13:52:27;4.43;;;2.80;;
33403;SDS011;19751;40.274;18.268;2023-09-18T13:54:56;10.10;;;3.10;;
33403;SDS011;19751;40.274;18.268;2023-09-18T13:57:22;4.40;;;2.80;;
33403;SDS011;19751;40.274;18.268;2023-09-18T13:59:49;6.45;;;2.78;;
33403;SDS011;19751;40.274;18.268;2023-09-18T14:02:15;3.03;;;2.60;;
33403;SDS011;19751;40.274;18.268;2023-09-18T14:04:42;8.93;;;3.67;;
33403;SDS011;19751;40.274;18.268;2023-09-18T14:07:08;6.90;;;2.92;;
33403;SDS011;19751;40.274;18.268;2023-09-18T14:09:36;3.03;;;2.42;;
33403;SDS011;19751;40.274;18.268;2023-09-18T14:12:02;5.85;;;3.20;;
33403;SDS011;19751;40.274;18.268;2023-09-18T14:14:28;9.35;;;2.90;;
33403;SDS011;19751;40.274;18.268;2023-09-18T14:16:54;8.32;;;3.35;;
33403;SDS011;19751;40.274;18.268;2023-09-18T14:19:19;4.88;;;2.15;;
33403;SDS011;19751;40.274;18.268;2023-09-18T14:21:45;6.45;;;2.38;;
33403;SDS011;19751;40.274;18.268;2023-09-18T14:24:11;6.20;;;2.40;;
33403;SDS011;19751;40.274;18.268;2023-09-18T14:26:37;10.05;;;4.15;;
33403;SDS011;19751;40.274;18.268;2023-09-18T14:29:08;4.32;;;2.20;;
33403;SDS011;19751;40.274;18.268;2023-09-18T14:31:38;7.53;;;4.00;;
33403;SDS011;19751;40.274;18.268;2023-09-18T14:34:04;5.63;;;2.42;;
33403;SDS011;19751;40.274;18.268;2023-09-18T14:36:33;6.68;;;3.03;;
33403;SDS011;19751;40.274;18.268;2023-09-18T14:39:00;8.95;;;2.83;;
33403;SDS011;19751;40.274;18.268;2023-09-18T14:41:26;7.70;;;3.42;;
33403;SDS011;19751;40.274;18.268;2023-09-18T14:43:52;5.25;;;2.45;;
33403;SDS011;19751;40.274;18.268;2023-09-18T14:46:18;7.78;;;4.03;;
33403;SDS011;19751;40.274;18.268;2023-09-18T14:48:43;7.47;;;2.78;;
33403;SDS011;19751;40.274;18.268;2023-09-18T14:51:09;7.22;;;3.15;;
33403;SDS011;19751;40.274;18.268;2023-09-18T14:53:35;7.82;;;2.83;;
33403;SDS011;19751;40.274;18.268;2023-09-18T14:56:00;5.53;;;2.45;;
33403;SDS011;19751;40.274;18.268;2023-09-18T14:58:26;5.85;;;2.38;;
33403;SDS011;19751;40.274;18.268;2023-09-18T15:00:53;4.15;;;3.03;;